sensor_id;sensor_type;location;lat;lon;timestamp;temperature;humidity
24224;DHT22;12359;49.716;9.212;2023-10-31T00:02:08;13.20;68.80
24224;DHT22;12359;49.716;9.212;2023-10-31T00:04:34;13.20;70.00
24224;DHT22;12359;49.716;9.212;2023-10-31T00:06:59;13.10;60.30
24224;DHT22;12359;49.716;9.212;2023-10-31T00:09:25;13.20;57.90
24224;DHT22;12359;49.716;9.212;2023-10-31T00:11:51;13.20;57.70
24224;DHT22;12359;49.716;9.212;2023-10-31T00:14:16;13.10;51.40
24224;DHT22;12359;49.716;9.212;2023-10-31T00:16:42;13.10;49.20
24224;DHT22;12359;49.716;9.212;2023-10-31T00:19:08;13.00;45.60
24224;DHT22;12359;49.716;9.212;2023-10-31T00:21:33;12.90;40.10
24224;DHT22;12359;49.716;9.212;2023-10-31T00:23:59;12.90;39.60
24224;DHT22;12359;49.716;9.212;2023-10-31T00:26:25;12.90;38.00
24224;DHT22;12359;49.716;9.212;2023-10-31T00:28:51;12.80;40.00
24224;DHT22;12359;49.716;9.212;2023-10-31T00:31:17;12.80;37.10
24224;DHT22;12359;49.716;9.212;2023-10-31T00:33:42;12.80;20.60
24224;DHT22;12359;49.716;9.212;2023-10-31T00:36:08;12.80;32.90
24224;DHT22;12359;49.716;9.212;2023-10-31T00:38:34;12.80;35.60
24224;DHT22;12359;49.716;9.212;2023-10-31T00:41:00;12.80;40.00
24224;DHT22;12359;49.716;9.212;2023-10-31T00:43:25;12.80;38.60
24224;DHT22;12359;49.716;9.212;2023-10-31T00:45:51;12.80;41.00
24224;DHT22;12359;49.716;9.212;2023-10-31T00:48:17;12.70;39.00
24224;DHT22;12359;49.716;9.212;2023-10-31T00:50:43;12.70;33.40
24224;DHT22;12359;49.716;9.212;2023-10-31T00:53:09;12.60;33.40
24224;DHT22;12359;49.716;9.212;2023-10-31T00:55:35;12.60;33.60
24224;DHT22;12359;49.716;9.212;2023-10-31T00:58:00;12.60;31.90
24224;DHT22;12359;49.716;9.212;2023-10-31T01:00:26;12.60;29.40
24224;DHT22;12359;49.716;9.212;2023-10-31T01:02:52;12.50;30.20
24224;DHT22;12359;49.716;9.212;2023-10-31T01:05:17;12.50;30.70
24224;DHT22;12359;49.716;9.212;2023-10-31T01:07:43;12.40;29.70
24224;DHT22;12359;49.716;9.212;2023-10-31T01:10:09;12.30;38.60
24224;DHT22;12359;49.716;9.212;2023-10-31T01:12:35;12.30;31.60
24224;DHT22;12359;49.716;9.212;2023-10-31T01:15:01;12.20;33.30
24224;DHT22;12359;49.716;9.212;2023-10-31T01:17:27;12.20;29.00
24224;DHT22;12359;49.716;9.212;2023-10-31T01:19:52;12.10;30.40
24224;DHT22;12359;49.716;9.212;2023-10-31T01:22:18;12.10;31.70
24224;DHT22;12359;49.716;9.212;2023-10-31T01:24:44;12.10;27.30
24224;DHT22;12359;49.716;9.212;2023-10-31T01:27:09;12.00;23.10
24224;DHT22;12359;49.716;9.212;2023-10-31T01:29:35;11.90;31.10
24224;DHT22;12359;49.716;9.212;2023-10-31T01:32:01;11.90;29.00
24224;DHT22;12359;49.716;9.212;2023-10-31T01:34:26;11.80;26.90
24224;DHT22;12359;49.716;9.212;2023-10-31T01:36:52;11.70;32.60
24224;DHT22;12359;49.716;9.212;2023-10-31T01:39:18;11.70;35.10
24224;DHT22;12359;49.716;9.212;2023-10-31T01:41:44;11.60;37.00
24224;DHT22;12359;49.716;9.212;2023-10-31T01:44:10;11.60;38.70
24224;DHT22;12359;49.716;9.212;2023-10-31T01:46:36;11.60;43.90
24224;DHT22;12359;49.716;9.212;2023-10-31T01:49:02;11.50;34.80
24224;DHT22;12359;49.716;9.212;2023-10-31T01:51:28;11.50;35.30
24224;DHT22;12359;49.716;9.212;2023-10-31T01:53:55;11.40;40.50
24224;DHT22;12359;49.716;9.212;2023-10-31T01:56:22;11.40;36.40
24224;DHT22;12359;49.716;9.212;2023-10-31T01:58:49;11.40;41.60
24224;DHT22;12359;49.716;9.212;2023-10-31T02:01:15;11.30;42.30
24224;DHT22;12359;49.716;9.212;2023-10-31T02:03:41;11.30;40.10
24224;DHT22;12359;49.716;9.212;2023-10-31T02:06:07;11.10;39.30
24224;DHT22;12359;49.716;9.212;2023-10-31T02:08:33;11.10;43.50
24224;DHT22;12359;49.716;9.212;2023-10-31T02:10:59;11.00;46.30
24224;DHT22;12359;49.716;9.212;2023-10-31T02:13:25;11.00;46.60
24224;DHT22;12359;49.716;9.212;2023-10-31T02:15:50;10.90;52.40
24224;DHT22;12359;49.716;9.212;2023-10-31T02:18:16;10.90;45.20
24224;DHT22;12359;49.716;9.212;2023-10-31T02:20:42;10.80;49.80
24224;DHT22;12359;49.716;9.212;2023-10-31T02:23:08;10.80;49.00
24224;DHT22;12359;49.716;9.212;2023-10-31T02:25:34;10.80;50.10
24224;DHT22;12359;49.716;9.212;2023-10-31T02:28:00;10.80;50.00
24224;DHT22;12359;49.716;9.212;2023-10-31T02:30:26;10.70;47.20
24224;DHT22;12359;49.716;9.212;2023-10-31T02:32:51;10.70;47.00
24224;DHT22;12359;49.716;9.212;2023-10-31T02:35:18;10.60;50.10
24224;DHT22;12359;49.716;9.212;2023-10-31T02:37:47;10.60;51.40
24224;DHT22;12359;49.716;9.212;2023-10-31T02:40:13;10.60;57.30
24224;DHT22;12359;49.716;9.212;2023-10-31T02:42:39;10.60;56.30
24224;DHT22;12359;49.716;9.212;2023-10-31T02:45:05;10.60;56.00
24224;DHT22;12359;49.716;9.212;2023-10-31T02:47:31;10.60;56.00
24224;DHT22;12359;49.716;9.212;2023-10-31T02:49:57;10.60;55.20
24224;DHT22;12359;49.716;9.212;2023-10-31T02:52:22;10.50;54.30
24224;DHT22;12359;49.716;9.212;2023-10-31T02:54:48;10.60;58.90
24224;DHT22;12359;49.716;9.212;2023-10-31T02:57:15;10.50;56.40
24224;DHT22;12359;49.716;9.212;2023-10-31T02:59:41;10.60;62.20
24224;DHT22;12359;49.716;9.212;2023-10-31T03:02:06;10.60;59.90
24224;DHT22;12359;49.716;9.212;2023-10-31T03:04:32;10.70;58.40
24224;DHT22;12359;49.716;9.212;2023-10-31T03:06:58;10.70;55.50
24224;DHT22;12359;49.716;9.212;2023-10-31T03:09:24;10.80;59.00
24224;DHT22;12359;49.716;9.212;2023-10-31T03:11:49;10.80;54.00
24224;DHT22;12359;49.716;9.212;2023-10-31T03:14:15;10.80;56.20
24224;DHT22;12359;49.716;9.212;2023-10-31T03:16:40;10.90;52.50
24224;DHT22;12359;49.716;9.212;2023-10-31T03:19:07;10.90;52.60
24224;DHT22;12359;49.716;9.212;2023-10-31T03:21:33;10.90;52.70
24224;DHT22;12359;49.716;9.212;2023-10-31T03:23:59;10.80;47.30
24224;DHT22;12359;49.716;9.212;2023-10-31T03:26:24;10.80;45.40
24224;DHT22;12359;49.716;9.212;2023-10-31T03:28:50;10.90;45.50
24224;DHT22;12359;49.716;9.212;2023-10-31T03:31:16;10.90;47.80
24224;DHT22;12359;49.716;9.212;2023-10-31T03:33:42;10.90;48.50
24224;DHT22;12359;49.716;9.212;2023-10-31T03:36:08;10.80;52.60
24224;DHT22;12359;49.716;9.212;2023-10-31T03:38:35;10.90;47.30
24224;DHT22;12359;49.716;9.212;2023-10-31T03:41:02;10.90;50.50
24224;DHT22;12359;49.716;9.212;2023-10-31T03:43:27;11.00;53.40
24224;DHT22;12359;49.716;9.212;2023-10-31T03:45:54;11.00;33.40
24224;DHT22;12359;49.716;9.212;2023-10-31T03:48:20;11.10;39.20
24224;DHT22;12359;49.716;9.212;2023-10-31T03:50:46;11.10;38.90
24224;DHT22;12359;49.716;9.212;2023-10-31T03:53:12;11.10;28.00
24224;DHT22;12359;49.716;9.212;2023-10-31T03:55:37;11.20;29.40
24224;DHT22;12359;49.716;9.212;2023-10-31T03:58:03;11.20;34.30
24224;DHT22;12359;49.716;9.212;2023-10-31T04:00:29;11.20;31.30
24224;DHT22;12359;49.716;9.212;2023-10-31T04:02:55;11.20;29.30
24224;DHT22;12359;49.716;9.212;2023-10-31T04:05:21;11.30;30.30
24224;DHT22;12359;49.716;9.212;2023-10-31T04:07:48;11.30;33.10
24224;DHT22;12359;49.716;9.212;2023-10-31T04:10:15;11.30;36.60
24224;DHT22;12359;49.716;9.212;2023-10-31T04:12:41;11.30;36.00
24224;DHT22;12359;49.716;9.212;2023-10-31T04:15:08;11.30;37.90
24224;DHT22;12359;49.716;9.212;2023-10-31T04:17:34;11.30;24.40
24224;DHT22;12359;49.716;9.212;2023-10-31T04:20:00;11.30;29.50
24224;DHT22;12359;49.716;9.212;2023-10-31T04:22:25;11.30;9.20
24224;DHT22;12359;49.716;9.212;2023-10-31T04:24:51;11.40;1.00
24224;DHT22;12359;49.716;9.212;2023-10-31T04:27:17;11.40;1.00
24224;DHT22;12359;49.716;9.212;2023-10-31T04:29:43;11.40;8.90
24224;DHT22;12359;49.716;9.212;2023-10-31T04:32:09;11.40;16.50
24224;DHT22;12359;49.716;9.212;2023-10-31T04:34:34;11.50;19.50
24224;DHT22;12359;49.716;9.212;2023-10-31T04:37:00;11.40;13.60
24224;DHT22;12359;49.716;9.212;2023-10-31T04:39:26;11.40;14.00
24224;DHT22;12359;49.716;9.212;2023-10-31T04:41:51;11.50;17.40
24224;DHT22;12359;49.716;9.212;2023-10-31T04:44:17;11.50;20.60
24224;DHT22;12359;49.716;9.212;2023-10-31T04:46:43;11.40;18.80
24224;DHT22;12359;49.716;9.212;2023-10-31T04:49:09;11.40;17.40
24224;DHT22;12359;49.716;9.212;2023-10-31T04:51:35;11.40;15.10
24224;DHT22;12359;49.716;9.212;2023-10-31T04:54:01;11.40;13.90
24224;DHT22;12359;49.716;9.212;2023-10-31T04:56:27;11.40;12.40
24224;DHT22;12359;49.716;9.212;2023-10-31T04:58:52;11.40;13.90
24224;DHT22;12359;49.716;9.212;2023-10-31T05:01:18;11.40;12.50
24224;DHT22;12359;49.716;9.212;2023-10-31T05:03:44;11.40;13.90
24224;DHT22;12359;49.716;9.212;2023-10-31T05:06:10;11.40;13.10
24224;DHT22;12359;49.716;9.212;2023-10-31T05:08:36;11.40;12.30
24224;DHT22;12359;49.716;9.212;2023-10-31T05:11:02;11.40;6.10
24224;DHT22;12359;49.716;9.212;2023-10-31T05:13:27;11.30;5.50
24224;DHT22;12359;49.716;9.212;2023-10-31T05:15:54;11.30;13.10
24224;DHT22;12359;49.716;9.212;2023-10-31T05:18:19;11.30;11.00
24224;DHT22;12359;49.716;9.212;2023-10-31T05:20:45;11.30;1.00
24224;DHT22;12359;49.716;9.212;2023-10-31T05:23:11;11.30;3.10
24224;DHT22;12359;49.716;9.212;2023-10-31T05:25:37;11.20;8.10
24224;DHT22;12359;49.716;9.212;2023-10-31T05:28:03;11.20;8.60
24224;DHT22;12359;49.716;9.212;2023-10-31T05:30:29;11.20;11.80
24224;DHT22;12359;49.716;9.212;2023-10-31T05:32:55;11.20;7.10
24224;DHT22;12359;49.716;9.212;2023-10-31T05:35:21;11.20;8.20
24224;DHT22;12359;49.716;9.212;2023-10-31T05:37:46;11.20;13.30
24224;DHT22;12359;49.716;9.212;2023-10-31T05:40:13;11.20;8.70
24224;DHT22;12359;49.716;9.212;2023-10-31T05:42:40;11.30;10.40
24224;DHT22;12359;49.716;9.212;2023-10-31T05:45:06;11.30;10.50
24224;DHT22;12359;49.716;9.212;2023-10-31T05:47:31;11.30;10.10
24224;DHT22;12359;49.716;9.212;2023-10-31T05:49:58;11.30;7.00
24224;DHT22;12359;49.716;9.212;2023-10-31T05:52:30;11.30;8.50
24224;DHT22;12359;49.716;9.212;2023-10-31T05:54:57;11.30;8.10
24224;DHT22;12359;49.716;9.212;2023-10-31T05:57:23;11.30;2.00
24224;DHT22;12359;49.716;9.212;2023-10-31T05:59:49;11.30;4.00
24224;DHT22;12359;49.716;9.212;2023-10-31T06:02:15;11.30;1.00
24224;DHT22;12359;49.716;9.212;2023-10-31T06:04:40;11.30;1.00
24224;DHT22;12359;49.716;9.212;2023-10-31T06:07:06;11.30;1.00
24224;DHT22;12359;49.716;9.212;2023-10-31T06:09:33;11.30;1.00
24224;DHT22;12359;49.716;9.212;2023-10-31T06:12:00;11.30;1.00
24224;DHT22;12359;49.716;9.212;2023-10-31T06:14:25;11.30;1.00
24224;DHT22;12359;49.716;9.212;2023-10-31T06:16:51;11.30;1.00
24224;DHT22;12359;49.716;9.212;2023-10-31T06:19:17;11.30;1.00
24224;DHT22;12359;49.716;9.212;2023-10-31T06:21:43;11.40;1.00
24224;DHT22;12359;49.716;9.212;2023-10-31T06:24:09;11.30;1.00
24224;DHT22;12359;49.716;9.212;2023-10-31T06:26:35;11.40;1.00
24224;DHT22;12359;49.716;9.212;2023-10-31T06:29:01;11.30;1.00
24224;DHT22;12359;49.716;9.212;2023-10-31T06:31:27;11.30;1.00
24224;DHT22;12359;49.716;9.212;2023-10-31T06:33:52;11.30;1.00
24224;DHT22;12359;49.716;9.212;2023-10-31T06:36:18;11.40;1.00
24224;DHT22;12359;49.716;9.212;2023-10-31T06:38:44;11.30;1.00
24224;DHT22;12359;49.716;9.212;2023-10-31T06:41:09;11.30;1.00
24224;DHT22;12359;49.716;9.212;2023-10-31T06:43:35;11.40;1.00
24224;DHT22;12359;49.716;9.212;2023-10-31T06:46:01;11.40;1.00
24224;DHT22;12359;49.716;9.212;2023-10-31T06:48:29;11.40;1.00
24224;DHT22;12359;49.716;9.212;2023-10-31T06:50:55;11.40;1.00
24224;DHT22;12359;49.716;9.212;2023-10-31T06:53:21;11.40;1.00
24224;DHT22;12359;49.716;9.212;2023-10-31T06:55:46;11.40;1.00
24224;DHT22;12359;49.716;9.212;2023-10-31T06:58:12;11.50;1.00
24224;DHT22;12359;49.716;9.212;2023-10-31T07:00:38;11.50;1.00
24224;DHT22;12359;49.716;9.212;2023-10-31T07:03:04;11.50;1.00
24224;DHT22;12359;49.716;9.212;2023-10-31T07:05:34;11.50;1.00
24224;DHT22;12359;49.716;9.212;2023-10-31T07:08:00;11.50;1.00
24224;DHT22;12359;49.716;9.212;2023-10-31T07:10:26;11.60;1.00
24224;DHT22;12359;49.716;9.212;2023-10-31T07:12:51;11.60;1.00
24224;DHT22;12359;49.716;9.212;2023-10-31T07:15:17;11.60;1.00
24224;DHT22;12359;49.716;9.212;2023-10-31T07:17:43;11.70;1.00
24224;DHT22;12359;49.716;9.212;2023-10-31T07:20:08;11.70;1.00
24224;DHT22;12359;49.716;9.212;2023-10-31T07:22:34;11.70;1.00
24224;DHT22;12359;49.716;9.212;2023-10-31T07:25:00;11.70;1.00
24224;DHT22;12359;49.716;9.212;2023-10-31T07:27:29;11.70;1.00
24224;DHT22;12359;49.716;9.212;2023-10-31T07:29:55;11.70;1.00
24224;DHT22;12359;49.716;9.212;2023-10-31T07:32:20;11.70;1.00
24224;DHT22;12359;49.716;9.212;2023-10-31T07:34:46;11.70;1.00
24224;DHT22;12359;49.716;9.212;2023-10-31T07:37:12;11.80;1.00
24224;DHT22;12359;49.716;9.212;2023-10-31T07:39:37;11.80;1.00
24224;DHT22;12359;49.716;9.212;2023-10-31T07:42:03;11.80;1.00
24224;DHT22;12359;49.716;9.212;2023-10-31T07:44:29;11.80;1.00
24224;DHT22;12359;49.716;9.212;2023-10-31T07:46:55;11.80;1.00
24224;DHT22;12359;49.716;9.212;2023-10-31T07:49:21;11.90;1.00
24224;DHT22;12359;49.716;9.212;2023-10-31T07:51:47;11.90;1.00
24224;DHT22;12359;49.716;9.212;2023-10-31T07:54:14;11.90;1.00
24224;DHT22;12359;49.716;9.212;2023-10-31T07:56:40;11.90;1.00
24224;DHT22;12359;49.716;9.212;2023-10-31T07:59:06;12.00;1.00
24224;DHT22;12359;49.716;9.212;2023-10-31T08:01:33;12.00;1.00
24224;DHT22;12359;49.716;9.212;2023-10-31T08:03:59;12.10;99.90
24224;DHT22;12359;49.716;9.212;2023-10-31T08:06:25;12.20;1.00
24224;DHT22;12359;49.716;9.212;2023-10-31T08:08:50;12.20;1.00
24224;DHT22;12359;49.716;9.212;2023-10-31T08:11:16;12.20;1.00
24224;DHT22;12359;49.716;9.212;2023-10-31T08:13:42;12.30;99.90
24224;DHT22;12359;49.716;9.212;2023-10-31T08:16:08;12.20;99.90
24224;DHT22;12359;49.716;9.212;2023-10-31T08:18:34;12.20;99.90
24224;DHT22;12359;49.716;9.212;2023-10-31T08:21:01;12.20;99.90
24224;DHT22;12359;49.716;9.212;2023-10-31T08:23:28;12.20;99.90
24224;DHT22;12359;49.716;9.212;2023-10-31T08:25:54;12.10;99.90
24224;DHT22;12359;49.716;9.212;2023-10-31T08:28:19;12.10;99.90
24224;DHT22;12359;49.716;9.212;2023-10-31T08:30:45;12.20;99.90
24224;DHT22;12359;49.716;9.212;2023-10-31T08:33:12;12.10;99.90
24224;DHT22;12359;49.716;9.212;2023-10-31T08:35:37;12.10;99.90
24224;DHT22;12359;49.716;9.212;2023-10-31T08:38:03;12.00;99.90
24224;DHT22;12359;49.716;9.212;2023-10-31T08:40:29;12.00;99.90
24224;DHT22;12359;49.716;9.212;2023-10-31T08:42:54;12.10;99.90
24224;DHT22;12359;49.716;9.212;2023-10-31T08:45:21;12.20;99.90
24224;DHT22;12359;49.716;9.212;2023-10-31T08:47:47;12.30;99.90
24224;DHT22;12359;49.716;9.212;2023-10-31T08:50:12;12.30;99.90
24224;DHT22;12359;49.716;9.212;2023-10-31T08:52:39;12.30;99.90
24224;DHT22;12359;49.716;9.212;2023-10-31T08:55:05;12.40;99.90
24224;DHT22;12359;49.716;9.212;2023-10-31T08:57:32;12.40;99.90
24224;DHT22;12359;49.716;9.212;2023-10-31T08:59:59;12.50;99.90
24224;DHT22;12359;49.716;9.212;2023-10-31T09:02:25;12.50;99.90
24224;DHT22;12359;49.716;9.212;2023-10-31T09:04:50;12.50;99.90
24224;DHT22;12359;49.716;9.212;2023-10-31T09:07:16;12.60;99.90
24224;DHT22;12359;49.716;9.212;2023-10-31T09:09:42;12.70;99.90
24224;DHT22;12359;49.716;9.212;2023-10-31T09:12:08;12.70;99.90
24224;DHT22;12359;49.716;9.212;2023-10-31T09:14:34;12.70;99.90
24224;DHT22;12359;49.716;9.212;2023-10-31T09:17:01;12.80;99.90
24224;DHT22;12359;49.716;9.212;2023-10-31T09:19:27;12.80;99.90
24224;DHT22;12359;49.716;9.212;2023-10-31T09:21:53;12.90;99.90
24224;DHT22;12359;49.716;9.212;2023-10-31T09:24:18;12.80;12.40
24224;DHT22;12359;49.716;9.212;2023-10-31T09:26:44;12.90;99.90
24224;DHT22;12359;49.716;9.212;2023-10-31T09:29:13;12.90;1.00
24224;DHT22;12359;49.716;9.212;2023-10-31T09:31:39;12.80;1.00
24224;DHT22;12359;49.716;9.212;2023-10-31T09:34:04;12.80;1.00
24224;DHT22;12359;49.716;9.212;2023-10-31T09:36:33;12.90;1.00
24224;DHT22;12359;49.716;9.212;2023-10-31T09:39:02;13.00;1.00
24224;DHT22;12359;49.716;9.212;2023-10-31T09:41:29;13.20;1.00
24224;DHT22;12359;49.716;9.212;2023-10-31T09:43:56;13.20;99.90
24224;DHT22;12359;49.716;9.212;2023-10-31T09:46:22;13.20;99.90
24224;DHT22;12359;49.716;9.212;2023-10-31T09:48:49;13.20;99.90
24224;DHT22;12359;49.716;9.212;2023-10-31T09:51:15;13.20;1.00
24224;DHT22;12359;49.716;9.212;2023-10-31T09:53:44;13.30;1.00
24224;DHT22;12359;49.716;9.212;2023-10-31T09:56:10;13.30;99.90
24224;DHT22;12359;49.716;9.212;2023-10-31T09:58:36;13.40;99.90
24224;DHT22;12359;49.716;9.212;2023-10-31T10:01:04;13.50;99.90
24224;DHT22;12359;49.716;9.212;2023-10-31T10:03:30;13.50;99.90
24224;DHT22;12359;49.716;9.212;2023-10-31T10:05:57;13.50;99.90
24224;DHT22;12359;49.716;9.212;2023-10-31T10:08:23;13.50;1.00
24224;DHT22;12359;49.716;9.212;2023-10-31T10:10:50;13.50;1.00
24224;DHT22;12359;49.716;9.212;2023-10-31T10:13:21;13.60;1.00
24224;DHT22;12359;49.716;9.212;2023-10-31T10:15:47;13.70;1.00
24224;DHT22;12359;49.716;9.212;2023-10-31T10:18:27;13.80;1.00
24224;DHT22;12359;49.716;9.212;2023-10-31T10:21:00;13.80;1.00
24224;DHT22;12359;49.716;9.212;2023-10-31T10:23:26;13.90;99.90
24224;DHT22;12359;49.716;9.212;2023-10-31T10:25:54;14.00;1.00
24224;DHT22;12359;49.716;9.212;2023-10-31T10:28:20;14.10;99.90
24224;DHT22;12359;49.716;9.212;2023-10-31T10:30:49;14.00;58.50
24224;DHT22;12359;49.716;9.212;2023-10-31T10:33:15;13.90;2.10
24224;DHT22;12359;49.716;9.212;2023-10-31T10:35:41;13.90;99.90
24224;DHT22;12359;49.716;9.212;2023-10-31T10:38:11;13.80;99.90
24224;DHT22;12359;49.716;9.212;2023-10-31T10:40:43;13.80;99.90
24224;DHT22;12359;49.716;9.212;2023-10-31T10:43:28;13.80;99.90
24224;DHT22;12359;49.716;9.212;2023-10-31T10:45:58;13.70;1.00
24224;DHT22;12359;49.716;9.212;2023-10-31T10:48:26;13.80;1.00
24224;DHT22;12359;49.716;9.212;2023-10-31T10:50:59;13.90;1.00
24224;DHT22;12359;49.716;9.212;2023-10-31T10:53:29;14.00;99.90
24224;DHT22;12359;49.716;9.212;2023-10-31T10:55:59;14.10;99.90
24224;DHT22;12359;49.716;9.212;2023-10-31T11:00:58;14.30;1.00
24224;DHT22;12359;49.716;9.212;2023-10-31T11:03:24;14.40;99.90
24224;DHT22;12359;49.716;9.212;2023-10-31T11:05:51;14.50;1.00
24224;DHT22;12359;49.716;9.212;2023-10-31T11:08:19;14.70;99.90
24224;DHT22;12359;49.716;9.212;2023-10-31T11:10:46;14.70;99.90
24224;DHT22;12359;49.716;9.212;2023-10-31T11:13:12;15.10;99.90
24224;DHT22;12359;49.716;9.212;2023-10-31T11:15:40;15.70;1.00
24224;DHT22;12359;49.716;9.212;2023-10-31T11:18:06;16.10;99.90
24224;DHT22;12359;49.716;9.212;2023-10-31T11:20:33;16.40;99.90
24224;DHT22;12359;49.716;9.212;2023-10-31T11:23:01;16.40;1.00
24224;DHT22;12359;49.716;9.212;2023-10-31T11:25:32;16.40;99.90
24224;DHT22;12359;49.716;9.212;2023-10-31T11:28:14;16.30;1.00
24224;DHT22;12359;49.716;9.212;2023-10-31T11:30:41;16.30;1.00
24224;DHT22;12359;49.716;9.212;2023-10-31T11:33:12;16.20;1.00
24224;DHT22;12359;49.716;9.212;2023-10-31T11:35:39;15.90;99.90
24224;DHT22;12359;49.716;9.212;2023-10-31T11:38:09;15.70;1.00
24224;DHT22;12359;49.716;9.212;2023-10-31T11:40:37;15.70;1.00
24224;DHT22;12359;49.716;9.212;2023-10-31T11:43:05;15.80;99.90
24224;DHT22;12359;49.716;9.212;2023-10-31T11:45:41;15.70;99.90
24224;DHT22;12359;49.716;9.212;2023-10-31T11:48:08;15.70;99.90
24224;DHT22;12359;49.716;9.212;2023-10-31T11:50:36;16.10;99.90
24224;DHT22;12359;49.716;9.212;2023-10-31T11:53:14;16.30;99.90
24224;DHT22;12359;49.716;9.212;2023-10-31T11:55:47;16.50;1.00
24224;DHT22;12359;49.716;9.212;2023-10-31T11:58:22;16.70;99.90
24224;DHT22;12359;49.716;9.212;2023-10-31T12:00:49;16.70;99.90
24224;DHT22;12359;49.716;9.212;2023-10-31T12:03:19;16.60;1.00
24224;DHT22;12359;49.716;9.212;2023-10-31T12:05:58;16.60;15.50
24224;DHT22;12359;49.716;9.212;2023-10-31T12:08:31;16.80;1.00
24224;DHT22;12359;49.716;9.212;2023-10-31T12:16:18;16.80;99.90
24224;DHT22;12359;49.716;9.212;2023-10-31T12:18:43;16.70;99.90
24224;DHT22;12359;49.716;9.212;2023-10-31T12:21:09;16.60;99.90
24224;DHT22;12359;49.716;9.212;2023-10-31T12:23:39;16.60;99.90
24224;DHT22;12359;49.716;9.212;2023-10-31T12:26:05;16.50;99.90
24224;DHT22;12359;49.716;9.212;2023-10-31T12:28:31;16.40;99.90
24224;DHT22;12359;49.716;9.212;2023-10-31T12:30:56;16.40;99.90
24224;DHT22;12359;49.716;9.212;2023-10-31T12:33:26;16.40;99.90
24224;DHT22;12359;49.716;9.212;2023-10-31T12:36:01;16.30;99.90
24224;DHT22;12359;49.716;9.212;2023-10-31T12:38:28;16.10;99.90
24224;DHT22;12359;49.716;9.212;2023-10-31T12:40:55;16.20;99.90
24224;DHT22;12359;49.716;9.212;2023-10-31T12:43:21;16.20;1.00
24224;DHT22;12359;49.716;9.212;2023-10-31T12:45:47;16.20;99.90
24224;DHT22;12359;49.716;9.212;2023-10-31T12:48:13;16.20;99.90
24224;DHT22;12359;49.716;9.212;2023-10-31T12:50:39;16.10;1.00
24224;DHT22;12359;49.716;9.212;2023-10-31T12:53:08;16.20;1.00
24224;DHT22;12359;49.716;9.212;2023-10-31T12:55:41;16.10;99.90
24224;DHT22;12359;49.716;9.212;2023-10-31T12:58:08;16.00;1.00
24224;DHT22;12359;49.716;9.212;2023-10-31T13:00:36;15.90;1.00
24224;DHT22;12359;49.716;9.212;2023-10-31T13:03:06;15.90;99.90
24224;DHT22;12359;49.716;9.212;2023-10-31T13:05:33;15.80;99.90
24224;DHT22;12359;49.716;9.212;2023-10-31T13:08:00;15.90;99.90
24224;DHT22;12359;49.716;9.212;2023-10-31T13:10:29;15.80;1.00
24224;DHT22;12359;49.716;9.212;2023-10-31T13:12:55;15.80;1.00
24224;DHT22;12359;49.716;9.212;2023-10-31T13:15:22;15.80;1.00
24224;DHT22;12359;49.716;9.212;2023-10-31T13:17:49;15.90;1.00
24224;DHT22;12359;49.716;9.212;2023-10-31T13:20:20;15.70;1.00
24224;DHT22;12359;49.716;9.212;2023-10-31T13:22:46;15.80;1.00
24224;DHT22;12359;49.716;9.212;2023-10-31T13:25:14;15.80;1.00
24224;DHT22;12359;49.716;9.212;2023-10-31T13:27:40;15.60;1.00
24224;DHT22;12359;49.716;9.212;2023-10-31T13:30:08;15.50;1.00
24224;DHT22;12359;49.716;9.212;2023-10-31T13:32:36;15.40;1.00
24224;DHT22;12359;49.716;9.212;2023-10-31T13:35:02;15.40;17.10
24224;DHT22;12359;49.716;9.212;2023-10-31T13:37:28;15.40;9.60
24224;DHT22;12359;49.716;9.212;2023-10-31T13:39:54;15.30;99.90
24224;DHT22;12359;49.716;9.212;2023-10-31T13:42:20;15.30;75.80
24224;DHT22;12359;49.716;9.212;2023-10-31T13:44:46;15.30;99.90
24224;DHT22;12359;49.716;9.212;2023-10-31T13:47:13;15.30;99.90
24224;DHT22;12359;49.716;9.212;2023-10-31T13:49:39;15.20;99.90
24224;DHT22;12359;49.716;9.212;2023-10-31T13:52:05;15.20;99.90
24224;DHT22;12359;49.716;9.212;2023-10-31T13:54:32;15.20;99.90
24224;DHT22;12359;49.716;9.212;2023-10-31T13:56:57;15.10;1.00
24224;DHT22;12359;49.716;9.212;2023-10-31T13:59:24;15.20;25.10
24224;DHT22;12359;49.716;9.212;2023-10-31T14:01:49;15.20;4.80
24224;DHT22;12359;49.716;9.212;2023-10-31T14:04:15;15.20;99.90
24224;DHT22;12359;49.716;9.212;2023-10-31T14:06:42;15.30;99.90
24224;DHT22;12359;49.716;9.212;2023-10-31T14:09:09;15.10;99.90
24224;DHT22;12359;49.716;9.212;2023-10-31T14:11:35;14.90;73.40
24224;DHT22;12359;49.716;9.212;2023-10-31T14:14:02;14.80;99.90
24224;DHT22;12359;49.716;9.212;2023-10-31T14:16:32;14.70;1.00
24224;DHT22;12359;49.716;9.212;2023-10-31T14:18:58;14.60;99.90
24224;DHT22;12359;49.716;9.212;2023-10-31T14:21:23;14.50;24.70
24224;DHT22;12359;49.716;9.212;2023-10-31T14:23:51;14.40;99.90
24224;DHT22;12359;49.716;9.212;2023-10-31T14:26:22;14.40;98.20
24224;DHT22;12359;49.716;9.212;2023-10-31T14:28:49;14.20;99.90
24224;DHT22;12359;49.716;9.212;2023-10-31T14:31:15;14.20;99.90
24224;DHT22;12359;49.716;9.212;2023-10-31T14:33:41;14.20;99.90
24224;DHT22;12359;49.716;9.212;2023-10-31T14:36:07;14.10;99.90
24224;DHT22;12359;49.716;9.212;2023-10-31T14:38:35;14.00;1.00
24224;DHT22;12359;49.716;9.212;2023-10-31T14:41:01;14.00;99.90
24224;DHT22;12359;49.716;9.212;2023-10-31T14:43:27;13.80;99.90
24224;DHT22;12359;49.716;9.212;2023-10-31T14:45:53;13.80;1.00
24224;DHT22;12359;49.716;9.212;2023-10-31T14:48:20;13.70;10.20
24224;DHT22;12359;49.716;9.212;2023-10-31T14:50:46;13.60;1.00
24224;DHT22;12359;49.716;9.212;2023-10-31T14:53:12;13.50;1.00
24224;DHT22;12359;49.716;9.212;2023-10-31T14:55:38;13.50;99.90
24224;DHT22;12359;49.716;9.212;2023-10-31T14:58:04;13.40;1.00
24224;DHT22;12359;49.716;9.212;2023-10-31T15:00:29;13.40;99.90
24224;DHT22;12359;49.716;9.212;2023-10-31T15:02:56;13.40;99.90
24224;DHT22;12359;49.716;9.212;2023-10-31T15:05:22;13.30;12.80
24224;DHT22;12359;49.716;9.212;2023-10-31T15:07:48;13.30;1.00
24224;DHT22;12359;49.716;9.212;2023-10-31T15:10:14;13.10;99.90
24224;DHT22;12359;49.716;9.212;2023-10-31T15:12:40;13.10;99.90
24224;DHT22;12359;49.716;9.212;2023-10-31T15:15:07;13.10;99.90
24224;DHT22;12359;49.716;9.212;2023-10-31T15:17:33;13.00;1.00
24224;DHT22;12359;49.716;9.212;2023-10-31T15:19:59;13.00;99.90
24224;DHT22;12359;49.716;9.212;2023-10-31T15:22:25;13.00;1.00
24224;DHT22;12359;49.716;9.212;2023-10-31T15:24:50;12.80;24.40
24224;DHT22;12359;49.716;9.212;2023-10-31T15:27:16;12.80;99.90
24224;DHT22;12359;49.716;9.212;2023-10-31T15:29:43;12.70;99.90
24224;DHT22;12359;49.716;9.212;2023-10-31T15:32:09;12.60;99.90
24224;DHT22;12359;49.716;9.212;2023-10-31T15:34:35;12.60;99.90
24224;DHT22;12359;49.716;9.212;2023-10-31T15:37:04;12.50;99.90
24224;DHT22;12359;49.716;9.212;2023-10-31T15:39:30;12.50;99.90